Las Vegas, Nevada
Traffic Map
Current Weather Conditions
Las Vegas, Nevada
Broken Clouds
Broken Clouds

Feels Like: 8°
Wind Chill: Ceiling: 25000
Heat Index: Visibility: 10mi
Dew Point: Wind: 5mph
Humidity: 66% Direction: 210° (SSW)
Pressure: 30.12in Gusts: 0mph
Raw Report DataKLAS 211656Z 21004KT 10SM FEW100 BKN250 09/03 A3012 RMK AO2 SLP198 T00890028 $
Traffic Incident Summary
Active as of:
Severity:
Category:
InformationThere was an issue retrieving the traffic information for this location. Please try a different location or try again shortly.
Advertisements
Track Severe Weather on mobile